Time;durP1;ratioP1;P1;durP2;ratioP2;P2;SDS_P1;SDS_P2;PMS_P1;PMS_P2;Temp;Humidity;BMP_temperature;BMP_pressure;BME280_temperature;BME280_humidity;BME280_pressure;Samples;Min_cycle;Max_cycle;Signal;HPM_P1;HPM_P2
2022/02/26 00:02:13;;;;;;;13.40;3.40;;;;;;;0.06;94.81;96774.63;5036916;28;20209;-84
2022/02/26 00:04:39;;;;;;;8.50;3.00;;;;;;;0.05;95.01;96777.25;5036800;28;20208;-84
2022/02/26 00:07:04;;;;;;;8.80;3.20;;;;;;;0.01;95.08;96778.25;5037211;28;20185;-83
2022/02/26 00:09:29;;;;;;;7.97;2.97;;;;;;;-0.10;95.49;96773.47;5037021;28;20642;-84
2022/02/26 00:11:55;;;;;;;7.50;2.73;;;;;;;-0.03;95.74;96772.41;5053308;28;20201;-83
2022/02/26 00:14:20;;;;;;;7.40;2.83;;;;;;;-0.08;95.61;96776.84;5036630;28;20210;-83
2022/02/26 00:16:45;;;;;;;11.93;3.47;;;;;;;-0.08;95.62;96777.69;5036688;28;20221;-83
2022/02/26 00:19:11;;;;;;;6.90;2.87;;;;;;;-0.08;96.35;96779.41;5036846;28;20217;-84
2022/02/26 00:21:36;;;;;;;8.17;2.50;;;;;;;-0.07;96.01;96787.00;5052609;28;20204;-84
2022/02/26 00:24:02;;;;;;;8.77;2.97;;;;;;;-0.10;95.76;96779.44;5036916;28;20185;-83
2022/02/26 00:26:27;;;;;;;7.40;2.87;;;;;;;-0.19;96.19;96778.91;5036514;28;20185;-83
2022/02/26 00:28:53;;;;;;;7.97;2.47;;;;;;;-0.24;96.63;96785.91;5036128;28;20185;-84
2022/02/26 00:31:18;;;;;;;9.27;2.87;;;;;;;-0.26;96.68;96792.78;5035562;28;20212;-84
2022/02/26 00:33:44;;;;;;;8.60;3.10;;;;;;;-0.32;97.11;96794.66;5035935;28;20288;-83
2022/02/26 00:36:09;;;;;;;5.00;2.93;;;;;;;-0.35;96.83;96792.22;5051835;28;20205;-83
2022/02/26 00:38:34;;;;;;;9.70;3.00;;;;;;;-0.33;96.95;96795.53;5035767;28;20192;-83
2022/02/26 00:41:00;;;;;;;10.03;3.30;;;;;;;-0.35;96.72;96799.03;5034892;28;20201;-84
2022/02/26 00:43:25;;;;;;;6.67;2.80;;;;;;;-0.34;97.23;96801.53;5034583;28;20195;-83
2022/02/26 00:45:51;;;;;;;10.43;3.30;;;;;;;-0.28;97.33;96808.13;5051534;28;20189;-83
2022/02/26 00:48:16;;;;;;;7.57;2.93;;;;;;;-0.22;96.79;96810.50;5034350;28;20186;-83
2022/02/26 00:50:42;;;;;;;11.03;3.30;;;;;;;-0.30;96.79;96813.28;5034540;28;20182;-83
2022/02/26 00:53:07;;;;;;;6.50;3.30;;;;;;;-0.29;96.65;96814.13;5033168;28;20240;-84
2022/02/26 00:55:32;;;;;;;10.10;3.63;;;;;;;-0.32;97.00;96815.06;5034915;28;20209;-84
2022/02/26 00:58:00;;;;;;;7.33;3.30;;;;;;;-0.32;97.15;96822.72;5036005;28;20204;-83
2022/02/26 01:00:25;;;;;;;6.93;2.93;;;;;;;-0.30;97.43;96827.78;5050533;28;20579;-81
2022/02/26 01:02:50;;;;;;;13.10;3.53;;;;;;;-0.28;97.51;96833.66;5033822;28;20272;-83
2022/02/26 01:05:16;;;;;;;9.73;3.27;;;;;;;-0.22;97.38;96833.47;5050760;28;20185;-82
2022/02/26 01:07:41;;;;;;;14.40;3.50;;;;;;;-0.19;97.57;96833.34;5034056;28;20204;-82
2022/02/26 01:10:08;;;;;;;9.83;3.23;;;;;;;-0.18;97.34;96840.13;5034056;28;20188;-82
2022/02/26 01:12:33;;;;;;;11.17;3.40;;;;;;;-0.14;97.50;96835.78;5050091;28;20200;-82
2022/02/26 01:14:58;;;;;;;8.37;3.23;;;;;;;-0.09;97.76;96841.53;5050390;28;20267;-83
2022/02/26 01:17:24;;;;;;;7.73;3.40;;;;;;;-0.07;97.78;96839.78;5033992;28;20181;-82
2022/02/26 01:19:50;;;;;;;10.83;3.37;;;;;;;-0.05;97.26;96838.00;5050424;28;20193;-82
2022/02/26 01:22:16;;;;;;;6.73;3.17;;;;;;;-0.03;97.57;96851.56;5045407;28;20235;-82
2022/02/26 01:24:41;;;;;;;10.30;3.90;;;;;;;-0.02;97.87;96843.84;5037405;28;20680;-83
2022/02/26 01:27:07;;;;;;;8.63;3.60;;;;;;;0.01;97.73;96836.97;5045810;28;20224;-83
2022/02/26 01:29:32;;;;;;;10.07;3.20;;;;;;;0.03;97.20;96830.94;5028000;28;20193;-82
2022/02/26 01:31:58;;;;;;;9.63;4.00;;;;;;;0.07;97.82;96839.31;5022954;28;20203;-82
2022/02/26 01:34:23;;;;;;;10.63;3.20;;;;;;;0.02;97.22;96831.00;5018233;28;20289;-84
2022/02/26 01:36:48;;;;;;;5.60;3.33;;;;;;;0.01;97.18;96832.72;5018377;28;20707;-84
2022/02/26 01:39:14;;;;;;;9.87;4.07;;;;;;;-0.01;97.33;96839.56;5035456;28;20208;-83
2022/02/26 01:41:40;;;;;;;7.97;3.53;;;;;;;-0.01;97.40;96840.41;5034122;28;20198;-84
2022/02/26 01:44:06;;;;;;;8.10;3.73;;;;;;;0.00;97.28;96843.81;5034311;28;20642;-83
2022/02/26 01:46:32;;;;;;;10.40;3.30;;;;;;;0.00;97.36;96854.03;5035785;28;20220;-83
2022/02/26 01:48:57;;;;;;;10.17;3.63;;;;;;;0.03;97.31;96851.38;5033707;28;20180;-83
2022/02/26 01:51:23;;;;;;;8.40;3.97;;;;;;;0.02;97.14;96844.59;5033458;28;20232;-82
2022/02/26 01:53:49;;;;;;;7.73;3.43;;;;;;;-0.05;97.91;96848.22;5035840;28;20216;-82
2022/02/26 01:56:14;;;;;;;9.57;4.40;;;;;;;0.06;97.76;96852.97;5017984;28;20185;-82
2022/02/26 01:58:40;;;;;;;9.43;3.57;;;;;;;0.04;97.36;96849.63;5017934;28;20177;-83
2022/02/26 02:01:06;;;;;;;10.23;4.30;;;;;;;0.04;97.87;96847.91;5033977;28;20183;-83
2022/02/26 02:03:32;;;;;;;7.67;3.60;;;;;;;0.02;97.61;96843.75;5016680;28;20196;-82
2022/02/26 02:05:58;;;;;;;8.90;3.70;;;;;;;0.00;97.61;96851.47;5034389;28;20276;-82
2022/02/26 02:08:24;;;;;;;9.43;4.10;;;;;;;-0.03;97.89;96846.44;5034839;28;20188;-83
2022/02/26 02:10:51;;;;;;;9.00;3.80;;;;;;;0.03;97.98;96851.38;5016961;28;20177;-84
2022/02/26 02:13:16;;;;;;;10.80;3.93;;;;;;;0.08;97.84;96854.56;5032878;28;20197;-83
2022/02/26 02:15:42;;;;;;;10.33;3.80;;;;;;;0.09;97.97;96853.72;5032888;28;20182;-84
2022/02/26 02:18:09;;;;;;;7.17;3.80;;;;;;;0.12;97.59;96848.50;5034017;28;20265;-83
2022/02/26 02:20:36;;;;;;;10.53;4.07;;;;;;;0.10;97.89;96847.72;5016170;28;20204;-82
2022/02/26 02:23:01;;;;;;;12.37;4.37;;;;;;;0.09;97.75;96850.31;5031591;28;20205;-83
2022/02/26 02:25:29;;;;;;;8.50;3.50;;;;;;;0.12;97.36;96853.59;5032654;28;20173;-82
2022/02/26 02:27:55;;;;;;;8.90;4.93;;;;;;;0.11;97.49;96857.03;5015755;28;20177;-82
2022/02/26 02:30:25;;;;;;;15.30;4.30;;;;;;;0.08;97.70;96857.13;5031429;28;20216;-82
2022/02/26 02:32:51;;;;;;;11.43;3.83;;;;;;;0.12;97.40;96856.16;5031255;28;20201;-83
2022/02/26 02:35:42;;;;;;;14.27;4.50;;;;;;;0.10;97.71;96852.00;5015054;28;20210;-82
2022/02/26 02:38:16;;;;;;;9.00;3.90;;;;;;;0.03;97.91;96861.56;5032035;28;20285;-83
2022/02/26 02:40:42;;;;;;;9.90;4.07;;;;;;;0.05;98.07;96858.97;5031543;28;20267;-83
2022/02/26 02:43:09;;;;;;;8.30;4.17;;;;;;;0.11;97.96;96859.59;5031104;28;20673;-82
2022/02/26 02:45:36;;;;;;;11.00;4.23;;;;;;;0.08;98.19;96859.69;5031874;28;20176;-83
2022/02/26 02:48:02;;;;;;;15.40;4.80;;;;;;;0.10;98.17;96859.66;5033161;28;20645;-82
2022/02/26 02:50:27;;;;;;;10.27;3.97;;;;;;;0.06;98.09;96858.06;5015887;28;20178;-83
2022/02/26 02:52:52;;;;;;;9.67;4.30;;;;;;;0.02;98.19;96854.81;5032655;28;20205;-82
2022/02/26 02:55:20;;;;;;;10.13;5.07;;;;;;;-0.02;97.48;96858.34;5031889;28;20206;-82
2022/02/26 02:57:46;;;;;;;15.23;4.57;;;;;;;-0.04;98.23;96857.56;5031390;28;20553;-82
2022/02/26 03:00:13;;;;;;;11.47;5.07;;;;;;;-0.13;98.31;96851.03;5018862;28;20676;-83
2022/02/26 03:02:38;;;;;;;12.00;4.90;;;;;;;-0.17;97.94;96854.59;5034619;28;20194;-82
2022/02/26 03:05:04;;;;;;;12.77;4.80;;;;;;;-0.21;98.29;96862.38;5034754;28;20292;-82
2022/02/26 03:07:30;;;;;;;11.37;4.40;;;;;;;-0.28;98.49;96857.47;5035865;28;20178;-83
2022/02/26 03:09:55;;;;;;;12.93;4.83;;;;;;;-0.29;98.86;96860.06;5034927;28;20206;-81
2022/02/26 03:12:20;;;;;;;11.53;4.60;;;;;;;-0.28;98.57;96864.28;5033857;28;20613;-83
2022/02/26 03:14:45;;;;;;;11.20;4.73;;;;;;;-0.23;98.61;96876.91;5035727;28;20205;-82
2022/02/26 03:17:11;;;;;;;9.70;4.33;;;;;;;-0.21;98.75;96875.97;5034573;28;20702;-82
2022/02/26 03:19:36;;;;;;;14.07;4.73;;;;;;;-0.22;98.65;96871.75;5034557;28;20524;-82
2022/02/26 03:22:03;;;;;;;12.17;5.20;;;;;;;-0.18;98.75;96877.59;5034122;28;20559;-82
2022/02/26 03:24:29;;;;;;;10.93;5.10;;;;;;;-0.17;98.37;96877.56;5051072;28;20268;-82
2022/02/26 03:26:56;;;;;;;11.40;4.40;;;;;;;-0.13;98.68;96880.84;5050730;28;20207;-82
2022/02/26 03:29:26;;;;;;;11.53;5.80;;;;;;;-0.10;98.76;96885.84;5034568;28;20284;-82
2022/02/26 03:31:52;;;;;;;14.00;4.50;;;;;;;-0.09;98.62;96890.06;5033287;28;20288;-81
2022/02/26 03:34:19;;;;;;;17.40;5.33;;;;;;;-0.10;98.62;96890.94;5034071;28;20309;-82
2022/02/26 03:36:45;;;;;;;11.47;4.27;;;;;;;-0.13;98.39;96893.59;5034102;28;20186;-82
2022/02/26 03:39:10;;;;;;;6.87;4.10;;;;;;;-0.11;98.64;96899.50;5042978;28;20672;-83
2022/02/26 03:41:36;;;;;;;11.80;5.33;;;;;;;-0.13;98.07;96907.22;5054441;28;20767;-82
2022/02/26 03:44:02;;;;;;;12.17;5.33;;;;;;;-0.13;98.46;96901.28;5037202;28;20178;-82
2022/02/26 03:46:28;;;;;;;9.17;4.60;;;;;;;-0.13;98.59;96906.38;5055443;28;20208;-81
2022/02/26 03:48:53;;;;;;;9.63;4.67;;;;;;;-0.16;98.51;96912.44;5054004;28;20574;-82
2022/02/26 03:51:18;;;;;;;10.27;4.90;;;;;;;-0.19;98.42;96909.13;5036279;28;20283;-81
2022/02/26 03:53:44;;;;;;;11.50;4.63;;;;;;;-0.24;98.41;96919.50;5053213;28;20211;-82
2022/02/26 03:56:09;;;;;;;10.10;4.80;;;;;;;-0.30;98.48;96912.00;5053505;28;20181;-82
2022/02/26 03:58:34;;;;;;;9.23;4.53;;;;;;;-0.35;98.54;96912.19;5053930;28;20620;-81
2022/02/26 04:01:00;;;;;;;16.03;5.33;;;;;;;-0.37;98.69;96921.56;5037542;28;20299;-83
2022/02/26 04:03:25;;;;;;;12.90;4.97;;;;;;;-0.35;98.94;96916.44;5036700;28;20224;-81
2022/02/26 04:05:50;;;;;;;8.80;4.83;;;;;;;-0.36;99.08;96913.03;5053601;28;20552;-82
2022/02/26 04:08:16;;;;;;;14.50;5.53;;;;;;;-0.35;98.87;96922.38;5053121;28;20540;-81
2022/02/26 04:10:41;;;;;;;10.77;5.23;;;;;;;-0.35;98.96;96922.38;5035149;28;20189;-81
2022/02/26 04:13:06;;;;;;;15.67;5.20;;;;;;;-0.34;98.95;96924.06;5036029;28;20205;-81
2022/02/26 04:15:32;;;;;;;9.53;4.87;;;;;;;-0.33;98.79;96924.88;5053523;28;20177;-81
2022/02/26 04:17:57;;;;;;;9.83;5.37;;;;;;;-0.34;98.74;96929.16;5037445;28;20181;-81
2022/02/26 04:20:22;;;;;;;11.10;5.27;;;;;;;-0.35;99.41;96931.75;5055141;28;20188;-81
2022/02/26 04:22:48;;;;;;;13.73;4.90;;;;;;;-0.34;99.11;96941.91;5052813;28;20276;-81
2022/02/26 04:25:13;;;;;;;12.87;5.60;;;;;;;-0.35;98.79;96940.25;5053567;28;20527;-81
2022/02/26 04:27:39;;;;;;;15.87;6.10;;;;;;;-0.34;98.82;96934.25;5053258;28;20191;-80
2022/02/26 04:30:09;;;;;;;9.37;4.60;;;;;;;-0.32;98.81;96940.16;5054789;28;20244;-80
2022/02/26 04:32:35;;;;;;;12.00;4.67;;;;;;;-0.34;98.76;96939.38;5051942;28;20212;-81
2022/02/26 04:35:00;;;;;;;10.63;5.10;;;;;;;-0.34;98.50;96939.38;5073197;28;20205;-81
2022/02/26 04:37:26;;;;;;;15.80;5.17;;;;;;;-0.38;98.72;96936.94;5046199;28;20641;-82
2022/02/26 04:39:51;;;;;;;10.57;5.10;;;;;;;-0.40;98.85;96931.06;5039929;28;20602;-82
2022/02/26 04:42:17;;;;;;;12.53;4.53;;;;;;;-0.43;98.60;96937.09;5039133;28;20607;-81
2022/02/26 04:44:44;;;;;;;12.10;5.03;;;;;;;-0.37;98.98;96944.53;5039070;28;20173;-82
2022/02/26 04:47:10;;;;;;;12.40;5.47;;;;;;;-0.41;99.05;96947.25;5055351;28;20172;-81
2022/02/26 04:49:35;;;;;;;11.50;6.17;;;;;;;-0.45;98.84;96941.38;5039164;28;20192;-80
2022/02/26 04:52:01;;;;;;;13.20;5.77;;;;;;;-0.44;99.04;96942.22;5054654;28;20213;-81
2022/02/26 04:54:27;;;;;;;11.27;5.70;;;;;;;-0.48;98.93;96945.75;5056562;28;20231;-82
2022/02/26 04:56:52;;;;;;;10.27;5.80;;;;;;;-0.42;99.12;96948.97;5055137;28;20181;-82
2022/02/26 04:59:17;;;;;;;13.97;6.00;;;;;;;-0.47;98.97;96943.16;5038225;28;20270;-82
2022/02/26 05:01:43;;;;;;;14.03;6.57;;;;;;;-0.40;98.95;96944.66;5054211;28;20201;-82
2022/02/26 05:04:08;;;;;;;15.63;6.80;;;;;;;-0.46;99.33;96946.56;5054998;28;20180;-81
2022/02/26 05:06:33;;;;;;;15.80;7.33;;;;;;;-0.49;99.58;96949.19;5055943;28;20181;-81
2022/02/26 05:08:59;;;;;;;17.90;7.97;;;;;;;-0.49;99.74;96952.59;5034678;28;20173;-81
2022/02/26 05:11:24;;;;;;;15.13;7.33;;;;;;;-0.45;99.67;96951.59;5035681;28;20189;-81
2022/02/26 05:13:49;;;;;;;12.00;6.20;;;;;;;-0.42;99.82;96951.53;5055705;28;20206;-81
2022/02/26 05:16:15;;;;;;;18.03;7.20;;;;;;;-0.43;99.62;96959.25;5047499;28;20200;-82
2022/02/26 05:18:40;;;;;;;18.90;7.77;;;;;;;-0.42;99.77;96956.63;5064933;28;20181;-80
2022/02/26 05:21:05;;;;;;;13.23;7.23;;;;;;;-0.41;99.97;96958.28;5042488;28;20187;-83
2022/02/26 05:23:31;;;;;;;17.33;8.63;;;;;;;-0.42;100.00;96950.69;5038374;28;20236;-81
2022/02/26 05:25:56;;;;;;;14.20;7.63;;;;;;;-0.42;99.81;96951.53;5056163;28;20671;-82
2022/02/26 05:28:21;;;;;;;14.03;6.93;;;;;;;-0.45;99.74;96956.69;5056014;28;20219;-82
2022/02/26 05:30:46;;;;;;;15.97;7.37;;;;;;;-0.47;99.65;96967.84;5055390;28;20177;-82
2022/02/26 05:33:12;;;;;;;16.63;6.20;;;;;;;-0.45;99.88;96956.69;5054765;28;20197;-83
2022/02/26 05:35:37;;;;;;;16.17;6.57;;;;;;;-0.47;99.89;96960.19;5055370;28;20191;-83
2022/02/26 05:38:02;;;;;;;15.13;6.87;;;;;;;-0.51;99.87;96966.28;5053489;28;20539;-81
2022/02/26 05:40:28;;;;;;;14.03;6.47;;;;;;;-0.51;100.00;96962.00;5054102;28;20177;-83
2022/02/26 05:42:53;;;;;;;14.90;6.57;;;;;;;-0.54;99.58;96963.81;5052933;28;20201;-82
2022/02/26 05:45:18;;;;;;;12.33;6.30;;;;;;;-0.54;99.95;96967.19;5052744;28;20289;-82
2022/02/26 05:47:44;;;;;;;12.53;6.27;;;;;;;-0.56;100.00;96963.84;5036160;28;20248;-81
2022/02/26 05:50:09;;;;;;;13.87;6.23;;;;;;;-0.58;99.97;96966.47;5053346;28;20183;-81
2022/02/26 05:52:35;;;;;;;16.27;7.27;;;;;;;-0.60;99.49;96975.03;5035122;28;20536;-81
2022/02/26 05:55:00;;;;;;;17.10;6.10;;;;;;;-0.60;100.00;96975.88;5051771;28;20716;-83
2022/02/26 05:57:25;;;;;;;14.27;6.47;;;;;;;-0.61;99.74;96978.47;5050606;28;20680;-82
2022/02/26 05:59:51;;;;;;;13.47;6.50;;;;;;;-0.61;100.00;96981.88;5017718;28;20285;-80
2022/02/26 06:02:16;;;;;;;12.63;5.97;;;;;;;-0.59;100.00;96986.91;5023606;28;20221;-84
2022/02/26 06:04:41;;;;;;;14.50;6.07;;;;;;;-0.60;100.00;96991.19;5068380;28;20218;-82
2022/02/26 06:07:07;;;;;;;11.63;6.23;;;;;;;-0.59;100.00;96989.47;5053459;28;20205;-82
2022/02/26 06:09:32;;;;;;;19.13;7.37;;;;;;;-0.59;99.95;96989.47;5051498;28;20189;-84
2022/02/26 06:11:57;;;;;;;15.87;6.60;;;;;;;-0.58;100.00;96991.13;5035129;28;20296;-84
2022/02/26 06:14:23;;;;;;;12.70;6.33;;;;;;;-0.55;99.91;97002.97;5051754;28;20205;-83
2022/02/26 06:16:48;;;;;;;12.13;5.90;;;;;;;-0.53;100.00;97007.16;5042861;28;20184;-83
2022/02/26 06:19:14;;;;;;;13.47;6.03;;;;;;;-0.49;100.00;97007.91;5052036;28;20226;-82
2022/02/26 06:21:39;;;;;;;13.07;6.10;;;;;;;-0.46;99.65;97012.91;5052353;28;20212;-82
2022/02/26 06:24:05;;;;;;;17.13;6.03;;;;;;;-0.40;99.87;97007.63;5051083;28;20172;-82
2022/02/26 06:26:32;;;;;;;11.20;6.47;;;;;;;-0.37;99.68;97016.00;5035980;28;20184;-84
2022/02/26 06:28:57;;;;;;;13.57;6.40;;;;;;;-0.32;99.84;97021.00;5033983;28;20176;-81
2022/02/26 06:31:23;;;;;;;14.80;5.53;;;;;;;-0.26;99.40;97022.53;5030945;28;20205;-82
2022/02/26 06:33:48;;;;;;;13.60;5.73;;;;;;;-0.23;99.31;97018.16;5050105;28;20196;-84
2022/02/26 06:36:14;;;;;;;13.63;6.00;;;;;;;-0.19;99.47;97024.00;5019383;28;20174;-83
2022/02/26 06:38:39;;;;;;;10.23;5.97;;;;;;;-0.17;99.10;97027.38;5034208;28;20678;-84
2022/02/26 06:41:04;;;;;;;13.97;6.60;;;;;;;-0.18;99.22;97029.06;5049449;28;20212;-84
2022/02/26 06:43:30;;;;;;;14.17;6.30;;;;;;;-0.17;99.15;97037.59;5036999;28;20363;-83
2022/02/26 06:45:55;;;;;;;12.87;6.13;;;;;;;-0.14;99.04;97029.81;5028734;28;20181;-83
2022/02/26 06:48:20;;;;;;;13.40;6.47;;;;;;;-0.12;98.52;97033.16;5017978;28;20185;-84
2022/02/26 06:50:46;;;;;;;15.13;6.40;;;;;;;-0.11;98.46;97037.38;5017633;28;20216;-83
2022/02/26 06:53:11;;;;;;;15.07;6.90;;;;;;;-0.04;98.23;97038.88;5017262;28;20209;-83
2022/02/26 06:55:36;;;;;;;13.13;6.33;;;;;;;0.01;98.33;97041.31;5051066;28;20193;-84
2022/02/26 06:58:01;;;;;;;11.70;6.07;;;;;;;0.03;98.14;97035.25;5017856;28;20199;-83
2022/02/26 07:00:29;;;;;;;17.00;6.70;;;;;;;0.10;98.06;97033.34;5018542;28;20177;-84
2022/02/26 07:02:55;;;;;;;12.60;6.23;;;;;;;0.18;97.47;97029.69;5018447;28;20227;-84
2022/02/26 07:05:20;;;;;;;15.50;8.20;;;;;;;0.23;97.26;97040.56;5018026;28;20200;-83
2022/02/26 07:07:45;;;;;;;16.43;7.20;;;;;;;0.23;96.68;97045.69;5034361;28;20296;-82
2022/02/26 07:10:11;;;;;;;17.73;7.17;;;;;;;0.24;96.84;97043.97;5034728;28;20196;-83
2022/02/26 07:12:37;;;;;;;18.30;6.50;;;;;;;0.33;96.88;97053.88;5033658;28;20640;-82
2022/02/26 07:15:03;;;;;;;16.47;6.83;;;;;;;0.42;96.87;97047.66;5017773;28;20209;-83
2022/02/26 07:17:29;;;;;;;16.07;6.40;;;;;;;0.49;96.47;97055.06;5035737;28;20193;-83
2022/02/26 07:19:54;;;;;;;19.43;6.80;;;;;;;0.58;96.31;97061.59;5034035;28;20182;-85
2022/02/26 07:22:20;;;;;;;16.20;6.10;;;;;;;0.61;95.43;97069.16;5033714;28;20206;-82
2022/02/26 07:24:46;;;;;;;10.27;5.90;;;;;;;0.59;95.17;97057.31;5034090;28;20173;-83
2022/02/26 07:27:13;;;;;;;16.43;6.67;;;;;;;0.71;95.09;97065.44;5034100;28;20185;-82
2022/02/26 07:29:39;;;;;;;11.67;5.90;;;;;;;0.79;94.77;97063.44;5050464;28;20174;-83
2022/02/26 07:32:05;;;;;;;14.13;6.07;;;;;;;0.92;94.34;97065.59;5049836;28;20680;-82
2022/02/26 07:34:30;;;;;;;12.33;5.90;;;;;;;0.99;93.32;97055.13;5016751;28;20206;-81
2022/02/26 07:36:55;;;;;;;22.90;5.97;;;;;;;0.99;92.59;97061.97;5017139;28;20276;-81
2022/02/26 07:39:21;;;;;;;15.00;6.47;;;;;;;1.09;92.57;97069.25;5033267;28;20221;-81
2022/02/26 07:41:46;;;;;;;19.50;6.57;;;;;;;1.11;91.58;97069.19;5036704;28;20178;-83
2022/02/26 07:44:11;;;;;;;14.67;6.70;;;;;;;1.16;91.94;97072.44;5039128;28;20438;-83
2022/02/26 07:46:36;;;;;;;18.47;6.77;;;;;;;1.25;90.91;97082.38;5042437;28;20170;-83
2022/02/26 07:49:02;;;;;;;15.47;6.83;;;;;;;1.28;90.96;97087.38;5035398;28;20638;-83
2022/02/26 07:51:28;;;;;;;14.10;6.13;;;;;;;1.28;89.77;97084.81;5035154;28;20241;-82
2022/02/26 07:53:53;;;;;;;15.00;5.80;;;;;;;1.24;90.42;97090.09;5036628;28;20214;-83
2022/02/26 07:56:19;;;;;;;13.43;6.33;;;;;;;1.15;89.84;97081.03;5035147;28;20224;-83
2022/02/26 07:58:44;;;;;;;17.63;6.87;;;;;;;0.90;90.40;97093.81;5034926;28;20273;-83
2022/02/26 08:01:10;;;;;;;15.00;5.67;;;;;;;0.98;89.57;97101.22;5034360;28;20193;-83
2022/02/26 08:03:35;;;;;;;15.87;5.97;;;;;;;1.23;89.66;97102.03;5019029;28;20177;-82
2022/02/26 08:06:00;;;;;;;15.53;6.30;;;;;;;1.28;89.36;97104.44;5018151;28;20193;-83
2022/02/26 08:08:25;;;;;;;15.80;6.43;;;;;;;1.36;89.20;97105.84;5035336;28;20248;-83
2022/02/26 08:10:51;;;;;;;21.53;6.93;;;;;;;1.13;89.74;97098.97;5019897;28;20190;-85
2022/02/26 08:13:19;;;;;;;13.27;5.70;;;;;;;0.98;88.99;97098.66;5019561;28;20707;-86
2022/02/26 08:15:44;;;;;;;16.20;6.50;;;;;;;0.88;88.98;97105.78;5020179;28;20183;-85
2022/02/26 08:18:10;;;;;;;12.93;5.70;;;;;;;1.13;88.23;97108.34;5020359;28;20186;-84
2022/02/26 08:20:37;;;;;;;19.67;5.33;;;;;;;1.37;86.77;97111.81;5036004;28;20190;-84
2022/02/26 08:23:03;;;;;;;13.03;5.17;;;;;;;1.20;87.30;97114.13;5019182;28;20213;-84
2022/02/26 08:25:29;;;;;;;18.10;6.23;;;;;;;1.37;88.47;97112.63;5036896;28;20179;-84
2022/02/26 08:27:54;;;;;;;9.77;5.60;;;;;;;1.56;86.87;97117.94;5019655;28;20206;-85
2022/02/26 08:30:20;;;;;;;13.30;5.10;;;;;;;1.54;85.01;97113.78;5036219;28;20193;-86
2022/02/26 08:32:51;;;;;;;16.77;5.77;;;;;;;1.26;86.77;97114.75;5035670;28;20218;-85
2022/02/26 08:35:16;;;;;;;12.20;5.23;;;;;;;1.45;85.97;97114.09;5019052;28;20206;-86
2022/02/26 08:37:46;;;;;;;13.10;5.47;;;;;;;1.29;85.10;97124.88;5035390;28;20189;-85
2022/02/26 08:40:13;;;;;;;17.10;5.47;;;;;;;1.49;84.61;97115.66;5034943;28;20193;-85
2022/02/26 08:42:49;;;;;;;15.33;4.70;;;;;;;1.25;84.55;97118.19;5034858;28;20210;-85
2022/02/26 08:46:23;;;;;;;18.97;6.43;;;;;;;1.81;84.17;97106.81;5038023;28;20188;-85
2022/02/26 08:49:22;;;;;;;;;;;;;;;;;;;;;
2022/02/26 08:51:58;;;;;;;15.87;6.77;;;;;;;1.40;82.53;97104.00;5032871;28;20231;-85
2022/02/26 08:58:27;;;;;;;;;;;;;;;;;;;;;
2022/02/26 09:01:35;;;;;;;10.87;4.13;;;;;;;2.19;78.94;97103.66;4922321;29;20755;-85
2022/02/26 09:04:09;;;;;;;12.07;4.57;;;;;;;2.50;78.36;97111.00;4937552;29;20219;-85
2022/02/26 09:07:27;;;;;;;17.13;4.37;;;;;;;2.35;75.50;97108.19;4937220;29;20284;-86
2022/02/26 09:10:59;;;;;;;;;;;;;;;;;;;;;
2022/02/26 09:23:41;;;;;;;14.57;3.77;;;;;;;2.30;71.65;97103.25;4839607;29;20278;-89
2022/02/26 09:30:43;;;;;;;;;;;;;;;;;;;;;
2022/02/26 09:40:04;;;;;;;12.13;3.07;;;;;;;2.74;67.62;97105.78;4840615;29;20283;-85
2022/02/26 09:51:34;;;;;;;12.80;3.07;;;;;;;3.13;64.81;97113.59;4955963;28;20300;-79
2022/02/26 09:53:59;;;;;;;6.90;2.67;;;;;;;3.01;62.77;97119.25;4953545;28;20213;-81
2022/02/26 09:56:25;;;;;;;5.33;2.23;;;;;;;3.00;62.43;97120.94;4965216;28;20193;-84
2022/02/26 10:03:15;;;;;;;7.63;2.03;;;;;;;2.97;61.17;97121.09;4935891;29;20375;-86
2022/02/26 10:06:18;;;;;;;7.30;2.10;;;;;;;2.90;61.61;97124.78;4842450;29;20188;-85
2022/02/26 10:09:19;;;;;;;7.10;2.13;;;;;;;2.98;61.28;97119.34;4828264;29;20604;-85
2022/02/26 10:11:47;;;;;;;8.23;2.50;;;;;;;2.91;62.66;97123.91;4773050;30;20220;-85
2022/02/26 10:14:48;;;;;;;8.83;2.90;;;;;;;2.61;61.05;97125.13;4775049;30;20227;-86
2022/02/26 10:18:11;;;;;;;;;;;;;;;;;;;;;
2022/02/26 10:21:26;;;;;;;7.17;2.03;;;;;;;2.34;57.57;97129.59;4766420;30;20201;-87
2022/02/26 10:27:06;;;;;;;4.70;1.90;;;;;;;2.75;59.32;97126.28;4757478;30;20195;-83
2022/02/26 10:29:39;;;;;;;7.13;2.10;;;;;;;2.91;58.13;97128.19;4741080;30;20295;-86
2022/02/26 10:32:37;;;;;;;11.17;3.83;;;;;;;3.10;56.77;97119.69;4754122;30;20254;-85
2022/02/26 10:36:16;;;;;;;9.10;2.47;;;;;;;3.34;57.70;97119.53;4741927;30;20216;-86
2022/02/26 10:39:37;;;;;;;5.40;2.00;;;;;;;3.97;55.39;97112.50;4751640;30;20207;-85
2022/02/26 10:42:28;;;;;;;5.97;2.23;;;;;;;3.96;56.17;97109.09;4865596;23;20275;-85
2022/02/26 10:49:12;;;;;;;6.27;2.00;;;;;;;4.50;52.93;97112.59;5019227;28;20213;-85
2022/02/26 10:52:27;;;;;;;7.90;2.90;;;;;;;4.34;52.16;97110.84;5016339;28;20229;-85
2022/02/26 10:58:49;;;;;;;;;;;;;;;;;;;;;
2022/02/26 11:01:54;;;;;;;6.93;2.40;;;;;;;3.99;56.11;97105.56;5014090;28;20266;-84
2022/02/26 11:08:24;;;;;;;4.43;1.83;;;;;;;4.41;52.27;97107.88;4974341;28;20771;-85
2022/02/26 11:11:27;;;;;;;6.50;2.73;;;;;;;4.43;54.40;97107.84;4957500;28;20193;-85
2022/02/26 11:18:22;;;;;;;8.50;2.40;;;;;;;4.69;51.16;97106.59;4960734;28;20189;-87
2022/02/26 11:21:23;;;;;;;6.63;2.37;;;;;;;4.95;52.17;97108.75;4961165;28;20611;-87
2022/02/26 11:24:25;;;;;;;8.20;2.30;;;;;;;4.95;50.33;97098.44;4945462;28;20189;-86
2022/02/26 11:26:53;;;;;;;7.77;2.60;;;;;;;4.03;50.50;97107.09;4981361;28;20220;-86
2022/02/26 11:29:54;;;;;;;4.27;2.03;;;;;;;4.53;51.38;97097.03;4980871;28;20695;-84
2022/02/26 11:32:54;;;;;;;;;;;;;;;;;;;;;
2022/02/26 11:35:37;;;;;;;8.53;2.40;;;;;;;4.29;52.19;97087.88;4996717;28;20230;-85
2022/02/26 11:38:43;;;;;;;;;;;;;;;;;;;;;
2022/02/26 11:41:37;;;;;;;8.43;2.37;;;;;;;4.11;50.35;97087.00;4980865;28;20184;-85
2022/02/26 11:44:11;;;;;;;9.37;2.70;;;;;;;4.58;51.03;97071.06;5006436;28;20752;-85
2022/02/26 11:50:00;;;;;;;9.67;2.37;;;;;;;4.13;53.53;97082.63;4974229;28;20200;-84
2022/02/26 11:52:58;;;;;;;3.77;2.30;;;;;;;4.45;50.36;97081.13;4944348;28;20216;-83
2022/02/26 11:55:33;;;;;;;5.77;2.13;;;;;;;4.40;49.84;97074.53;4966578;28;20837;-85
2022/02/26 12:01:53;;;;;;;7.07;2.37;;;;;;;4.42;50.44;97078.72;4930884;29;20654;-84
2022/02/26 12:05:00;;;;;;;5.13;2.17;;;;;;;5.02;47.02;97086.91;4938935;28;20285;-86
2022/02/26 12:07:45;;;;;;;5.73;2.20;;;;;;;4.64;48.73;97068.22;4922738;29;20281;-85
2022/02/26 12:10:13;;;;;;;6.43;3.03;;;;;;;3.97;52.51;97063.66;4938375;29;20575;-80
2022/02/26 12:13:04;;;;;;;9.60;3.73;;;;;;;3.60;54.39;97067.88;4938795;29;20209;-85
2022/02/26 12:15:35;;;;;;;7.53;2.90;;;;;;;3.63;53.91;97057.50;4938727;29;20296;-85
2022/02/26 12:18:37;;;;;;;4.97;2.80;;;;;;;3.08;54.90;97061.59;4923747;29;20234;-85
2022/02/26 12:21:45;;;;;;;12.43;3.30;;;;;;;3.54;54.71;97051.94;4882062;29;20676;-85
2022/02/26 12:24:41;;;;;;;5.77;2.50;;;;;;;3.09;54.59;97053.88;4809989;29;20194;-84
2022/02/26 12:28:00;;;;;;;9.03;2.83;;;;;;;3.19;53.49;97045.78;4827481;29;20208;-85
2022/02/26 12:31:10;;;;;;;;;;;;;;;;;;;;;
2022/02/26 12:34:36;;;;;;;9.73;3.37;;;;;;;3.11;51.38;97054.63;4816731;29;20208;-85
2022/02/26 12:44:47;;;;;;;4.93;2.23;;;;;;;3.38;48.67;97047.47;4745741;30;20207;-85
2022/02/26 12:50:52;;;;;;;5.93;2.07;;;;;;;4.33;49.60;97047.41;4739040;30;20208;-84
2022/02/26 12:54:11;;;;;;;12.37;2.90;;;;;;;4.74;48.32;97048.00;4745932;30;20223;-85
2022/02/26 12:57:09;;;;;;;3.70;1.47;;;;;;;4.79;48.26;97040.91;4737351;30;20205;-86
2022/02/26 12:59:53;;;;;;;7.77;2.00;;;;;;;4.88;48.65;97045.59;4735953;30;20217;-85
2022/02/26 13:02:37;;;;;;;4.37;2.03;;;;;;;5.08;47.10;97042.00;4738515;30;20228;-87
2022/02/26 13:08:53;;;;;;;5.37;1.90;;;;;;;5.05;47.08;97031.88;4826223;29;20352;-86
2022/02/26 13:11:21;;;;;;;12.83;2.43;;;;;;;4.96;46.97;97037.50;4822796;29;20194;-79
2022/02/26 13:13:46;;;;;;;8.87;2.40;;;;;;;4.49;47.80;97036.31;4807107;29;20201;-79
2022/02/26 13:16:11;;;;;;;4.70;1.93;;;;;;;5.02;48.23;97026.88;4816171;29;20203;-80
2022/02/26 13:18:37;;;;;;;7.80;2.50;;;;;;;5.23;47.72;97030.94;4862858;29;20198;-79
2022/02/26 13:21:02;;;;;;;7.27;2.37;;;;;;;5.22;48.03;97024.13;4863428;29;20196;-80
2022/02/26 13:23:29;;;;;;;10.63;2.40;;;;;;;5.40;48.35;97022.34;4865892;29;20715;-82
2022/02/26 13:25:56;;;;;;;8.93;2.23;;;;;;;5.35;47.43;97014.84;4867077;29;20684;-83